Bujumbura, Burundi
Current Conditions -  °F | °C
As of 3:00 PM on Wednesday 17 Dec 2014 (Local Time) from HTKA Reporting Station
Broken Clouds Broken Clouds  
Wind Chill: 79°   Ceiling: 10000
Heat Index: 81°   Visibility: 6mi
Dew Point: 68°   Wind: 12mph
Humidity: 69%   Direction: 180°S
Pressure: 30.03"   Gusts: NA
Location:  3.37°S, 29.35°E
Report Text: HTKA 171300Z 18010KT 9999 FEW024 FEW025CB BKN100 26/20 Q1017 RETS
Loading
Personal Weather Stations






























Interactive Weather Map New forecast layout! Learn more

10-Day Weather Forecast

Advertisements
Track Severe Weather on mobile